Hauptseite
METAR-TAF:

METAR-TAF

Flughäfen :

Georgetown, Ascension

Flugfeld Wideawake

Breite: 07-58S, Länge: 014-24W, Höhe: 86 m

Beobachtung

Neuester Wetterbericht von vor 2 Stunden und 53 Minuten, um 14:50 UTC
Wind 17 kt aus Südost
Temperatur 27°C
Luftfeuchtigkeit 58%
Luftdruck 1012 hPa
Sichtweite 10 km oder mehr
Leicht bewölkt in der Höhe von 2300 ft

METAR: FHAW 191450Z 14017KT 9999 FEW023 27/18 Q1012 BLU

Zeit: 17:43 (17:43 UTC)

Prognose

Neuester Wetterbericht von vor 10 Stunden und 13 Minuten, um 07:30 UTC
Gültige Prognose vom 19 um 09 UTC bis 20 um 03 UTC
Wind 15 kt aus Ost/Südost
Sichtweite 10 km oder mehr
Leicht bewölkt in der Höhe von 2800 ft
Aufgelockert bewölkt in der Höhe von 4500 ft
Wahrscheinlichkeit 30% :
Zeitweise
vom 19 um 20 UTC bis 20 um 03 UTC
Aufgelockert bewölkt in der Höhe von 2000 ft
Regenschauer

TAF: FHAW 190730Z 1909/2003 12015KT 9999 FEW028 SCT045 PROB30 TEMPO 1920/2003 -SHRA SCT020

Wetterbeobachtungen und Prognosen von mehr als 4000 Flughäfen (METAR und TAF Bericht).

Die verfügbaren Stationen werden durch gelbe und rote Markierungen auf der Karte dargestellt.

Führen Sie die Maus auf sie, um den Namen der Station zu sehen.

Darauf klicken, um die Beobachtung von Wetterbeobachtungen und Prognosen zu sehen.

Um die Karte zu ändern : klicken Sie auf den grünen Tasten mit einem schwarzen Kreuz Zum Vergrößern, auf den grünen Button mit einem Gedankenstrich zu verkleinern, oder auf die grünen Pfeile für benachbarte Karten.


METAR-TAF: